createdAt,value
2018-06-18T00:02:29.654Z,57.60
2018-06-18T00:04:59.253Z,57.50
2018-06-18T00:07:29.140Z,57.10
2018-06-18T00:09:58.769Z,57.00
2018-06-18T00:12:28.462Z,57.60
2018-06-18T00:14:58.106Z,57.00
2018-06-18T00:17:27.792Z,58.00
2018-06-18T00:19:57.608Z,57.00
2018-06-18T00:22:27.236Z,56.60
2018-06-18T00:24:57.020Z,56.20
2018-06-18T00:27:26.761Z,57.30
2018-06-18T00:29:56.540Z,56.60
2018-06-18T00:32:26.232Z,56.70
2018-06-18T00:34:55.979Z,56.80
2018-06-18T00:37:25.757Z,56.50
2018-06-18T00:39:55.520Z,57.90
2018-06-18T00:42:25.282Z,56.00
2018-06-18T00:44:55.032Z,56.90
2018-06-18T00:47:24.723Z,56.10
2018-06-18T00:49:54.373Z,56.50
2018-06-18T00:52:24.100Z,56.60
2018-06-18T00:54:53.833Z,56.40
2018-06-18T00:57:23.484Z,57.30
2018-06-18T00:59:53.168Z,56.70
2018-06-18T01:02:22.951Z,56.80
2018-06-18T01:04:52.603Z,56.80
2018-06-18T01:07:22.273Z,57.30
2018-06-18T01:09:52.028Z,57.70
2018-06-18T01:12:21.817Z,57.80
2018-06-18T01:14:51.514Z,57.70
2018-06-18T01:17:21.137Z,58.60
2018-06-18T01:19:50.874Z,58.30
2018-06-18T01:22:20.582Z,57.80
2018-06-18T01:24:58.436Z,57.60
2018-06-18T01:27:28.268Z,57.60
2018-06-18T01:29:57.852Z,57.70
2018-06-18T01:32:27.509Z,59.00
2018-06-18T01:34:57.201Z,58.40
2018-06-18T01:37:26.823Z,58.70
2018-06-18T01:39:56.536Z,58.60
2018-06-18T01:42:26.412Z,58.10
2018-06-18T01:44:56.064Z,59.10
2018-06-18T01:47:25.755Z,58.30
2018-06-18T01:49:57.702Z,59.20
2018-06-18T01:52:32.296Z,60.00
2018-06-18T01:55:03.666Z,58.60
2018-06-18T01:57:33.415Z,59.10
2018-06-18T02:00:03.233Z,58.80
2018-06-18T02:02:32.890Z,59.30
2018-06-18T02:05:02.545Z,58.80
2018-06-18T02:07:32.313Z,59.20
2018-06-18T02:10:01.847Z,60.40
2018-06-18T02:12:31.447Z,59.90
2018-06-18T02:15:01.129Z,59.30
2018-06-18T02:17:30.796Z,59.80
2018-06-18T02:20:00.488Z,59.40
2018-06-18T02:22:30.202Z,59.10
2018-06-18T02:25:00.011Z,59.30
2018-06-18T02:27:34.637Z,59.80
2018-06-18T02:30:09.556Z,59.30
2018-06-18T02:32:44.298Z,59.40
2018-06-18T02:35:19.008Z,59.50
2018-06-18T02:37:53.604Z,59.20
2018-06-18T02:40:28.248Z,59.60
2018-06-18T02:42:58.041Z,59.20
2018-06-18T02:47:56.800Z,61.00
2018-06-18T02:50:26.561Z,59.50
2018-06-18T02:52:56.214Z,59.90
2018-06-18T02:55:26.089Z,59.80
2018-06-18T02:57:55.841Z,59.70
2018-06-18T03:00:25.597Z,59.80
2018-06-18T03:02:55.244Z,60.90
2018-06-18T03:05:25.057Z,59.70
2018-06-18T03:07:54.732Z,59.50
2018-06-18T03:10:24.601Z,59.50
2018-06-18T03:12:54.361Z,61.50
2018-06-18T03:15:24.020Z,60.10
2018-06-18T03:17:53.772Z,60.00
2018-06-18T03:20:28.507Z,60.60
2018-06-18T03:23:03.388Z,60.50
2018-06-18T03:25:38.349Z,61.30
2018-06-18T03:28:13.168Z,61.50
2018-06-18T03:30:42.954Z,61.00
2018-06-18T03:33:12.822Z,61.80
2018-06-18T03:35:42.478Z,60.90
2018-06-18T03:38:12.263Z,61.00
2018-06-18T03:40:42.006Z,61.90
2018-06-18T03:43:11.800Z,61.20
2018-06-18T03:45:41.364Z,62.50
2018-06-18T03:48:12.667Z,61.80
2018-06-18T03:50:42.423Z,61.30
2018-06-18T03:53:12.083Z,62.00
2018-06-18T03:55:48.077Z,61.30
2018-06-18T03:58:17.853Z,61.00
2018-06-18T04:01:04.159Z,63.20
2018-06-18T04:03:38.916Z,62.50
2018-06-18T04:06:13.697Z,62.10
2018-06-18T04:08:43.531Z,62.40
2018-06-18T04:11:18.460Z,61.40
2018-06-18T04:13:48.169Z,62.20
2018-06-18T04:16:17.920Z,61.60
2018-06-18T04:18:51.793Z,62.00
2018-06-18T04:21:21.488Z,62.20
2018-06-18T04:23:51.294Z,62.40
2018-06-18T04:26:21.065Z,61.80
2018-06-18T04:31:19.902Z,62.50
2018-06-18T04:33:58.693Z,61.40
2018-06-18T04:36:28.347Z,62.30
2018-06-18T04:38:58.051Z,62.10
2018-06-18T04:41:27.828Z,62.90
2018-06-18T04:44:02.441Z,62.00
2018-06-18T04:46:37.276Z,61.90
2018-06-18T04:49:12.192Z,63.20
2018-06-18T04:51:41.917Z,63.40
2018-06-18T04:54:11.596Z,61.90
2018-06-18T04:56:41.274Z,62.40
2018-06-18T04:59:10.948Z,63.30
2018-06-18T05:01:40.684Z,62.30
2018-06-18T05:04:10.475Z,61.80
2018-06-18T05:06:40.219Z,63.60
2018-06-18T05:09:51.367Z,62.10
2018-06-18T05:12:21.122Z,61.90
2018-06-18T05:14:51.173Z,61.50
2018-06-18T05:17:20.844Z,61.40
2018-06-18T05:19:50.634Z,61.60
2018-06-18T05:22:20.957Z,61.30
2018-06-18T05:24:52.472Z,60.90
2018-06-18T05:27:25.640Z,60.90
2018-06-18T05:29:55.639Z,61.40
2018-06-18T05:32:25.405Z,61.10
2018-06-18T05:34:55.063Z,60.10
2018-06-18T05:37:32.885Z,60.80
2018-06-18T05:40:02.588Z,59.30
2018-06-18T05:42:32.326Z,60.10
2018-06-18T05:45:02.044Z,60.00
2018-06-18T05:47:31.709Z,60.20
2018-06-18T05:50:01.380Z,59.10
2018-06-18T05:52:31.294Z,58.40
2018-06-18T05:55:01.042Z,58.40
2018-06-18T05:57:30.919Z,58.90
2018-06-18T06:00:00.565Z,58.10
2018-06-18T06:02:30.445Z,58.70
2018-06-18T06:05:00.170Z,57.90
2018-06-18T06:07:29.841Z,58.30
2018-06-18T06:09:59.602Z,57.30
2018-06-18T06:12:29.364Z,57.50
2018-06-18T06:14:59.029Z,57.70
2018-06-18T06:17:28.808Z,56.60
2018-06-18T06:19:58.542Z,56.70
2018-06-18T06:22:28.280Z,56.50
2018-06-18T06:24:58.048Z,56.20
2018-06-18T06:27:27.665Z,57.10
2018-06-18T06:29:57.363Z,56.10
2018-06-18T06:32:26.983Z,55.30
2018-06-18T06:35:01.653Z,56.40
2018-06-18T06:37:31.368Z,56.60
2018-06-18T06:40:01.005Z,56.20
2018-06-18T06:42:30.693Z,55.40
2018-06-18T06:45:00.448Z,55.80
2018-06-18T06:49:59.110Z,55.40
2018-06-18T06:52:28.612Z,55.20
2018-06-18T06:54:58.256Z,55.20
2018-06-18T06:57:27.969Z,55.10
2018-06-18T06:59:57.684Z,55.10
2018-06-18T07:02:28.532Z,55.80
2018-06-18T07:04:58.321Z,55.10
2018-06-18T07:07:28.232Z,56.20
2018-06-18T07:09:57.941Z,54.60
2018-06-18T07:12:27.620Z,54.40
2018-06-18T07:14:57.359Z,52.70
2018-06-18T07:17:27.008Z,50.40
2018-06-18T07:19:57.129Z,46.00
2018-06-18T07:22:26.974Z,42.10
2018-06-18T07:24:56.681Z,39.70
2018-06-18T07:27:26.447Z,39.00
2018-06-18T07:29:56.136Z,39.40
2018-06-18T07:32:25.862Z,38.40
2018-06-18T07:34:55.674Z,39.70
2018-06-18T07:37:25.438Z,39.70
2018-06-18T07:39:55.472Z,38.30
2018-06-18T07:42:25.220Z,36.60
2018-06-18T07:44:55.033Z,34.90
2018-06-18T07:47:24.788Z,34.70
2018-06-18T07:49:54.429Z,33.30
2018-06-18T07:52:24.116Z,32.40
2018-06-18T07:54:53.855Z,31.20
2018-06-18T07:57:23.364Z,31.10
2018-06-18T07:59:53.234Z,29.60
2018-06-18T08:02:22.887Z,30.60
2018-06-18T08:04:52.594Z,30.40
2018-06-18T08:07:22.338Z,30.20
2018-06-18T08:09:52.159Z,29.80
2018-06-18T08:12:21.885Z,28.70
2018-06-18T08:17:20.820Z,28.20
2018-06-18T08:19:50.605Z,26.60
2018-06-18T08:24:50.794Z,26.50
2018-06-18T08:27:20.586Z,27.20
2018-06-18T08:29:50.321Z,26.80
2018-06-18T08:32:20.019Z,25.70
2018-06-18T08:34:49.849Z,26.20
2018-06-18T08:37:19.571Z,25.80
2018-06-18T08:39:49.512Z,25.80
2018-06-18T08:42:19.295Z,26.80
2018-06-18T08:44:49.136Z,26.20
2018-06-18T08:47:18.787Z,26.20
2018-06-18T08:49:53.508Z,26.70
2018-06-18T08:52:28.227Z,25.60
2018-06-18T08:55:02.919Z,25.90
2018-06-18T08:57:37.812Z,26.10
2018-06-18T09:01:16.643Z,26.30
2018-06-18T09:03:51.334Z,24.70
2018-06-18T09:06:20.953Z,25.40
2018-06-18T09:08:55.808Z,26.20
2018-06-18T09:11:25.945Z,26.30
2018-06-18T09:13:55.711Z,26.10
2018-06-18T09:16:25.428Z,24.90
2018-06-18T09:18:55.357Z,24.90
2018-06-18T09:21:25.148Z,26.00
2018-06-18T09:23:54.831Z,25.60
2018-06-18T09:26:24.564Z,24.80
2018-06-18T09:28:54.509Z,25.80
2018-06-18T09:31:24.210Z,24.70
2018-06-18T09:33:53.981Z,26.00
2018-06-18T09:36:23.628Z,23.90
2018-06-18T09:38:53.312Z,24.40
2018-06-18T09:41:23.048Z,24.20
2018-06-18T09:43:52.769Z,23.20
2018-06-18T09:46:22.681Z,23.50
2018-06-18T09:48:57.461Z,23.10
2018-06-18T09:51:32.208Z,23.90
2018-06-18T09:54:07.134Z,23.80
2018-06-18T09:56:41.890Z,23.80
2018-06-18T09:59:16.585Z,23.50
2018-06-18T10:01:46.389Z,22.20
2018-06-18T10:04:16.037Z,23.30
2018-06-18T10:06:45.831Z,23.90
2018-06-18T10:09:15.460Z,23.80
2018-06-18T10:11:45.252Z,23.20
2018-06-18T10:14:14.941Z,23.00
2018-06-18T10:16:44.772Z,22.20
2018-06-18T10:19:14.381Z,23.20
2018-06-18T10:21:44.064Z,23.90
2018-06-18T10:24:13.792Z,24.10
2018-06-18T10:26:43.484Z,23.90
2018-06-18T10:31:42.333Z,25.10
2018-06-18T10:34:17.173Z,26.70
2018-06-18T10:36:51.899Z,27.20
2018-06-18T10:40:25.105Z,26.90
2018-06-18T10:42:59.905Z,28.20
2018-06-18T10:45:29.608Z,28.70
2018-06-18T10:47:59.445Z,28.80
2018-06-18T10:50:29.130Z,30.40
2018-06-18T10:52:59.045Z,29.80
2018-06-18T10:55:28.778Z,31.00
2018-06-18T10:57:58.641Z,30.80
2018-06-18T11:00:29.048Z,30.60
2018-06-18T11:02:58.785Z,32.40
2018-06-18T11:05:33.535Z,32.00
2018-06-18T11:08:03.160Z,32.00
2018-06-18T11:10:33.083Z,32.20
2018-06-18T11:13:02.884Z,32.50
2018-06-18T11:15:32.578Z,33.20
2018-06-18T11:18:07.354Z,32.90
2018-06-18T11:20:42.079Z,33.30
2018-06-18T11:23:16.835Z,32.20
2018-06-18T11:25:51.632Z,32.00
2018-06-18T11:28:21.376Z,32.90
2018-06-18T11:30:51.080Z,32.80
2018-06-18T11:33:20.746Z,33.70
2018-06-18T11:35:50.430Z,34.60
2018-06-18T11:38:20.120Z,33.60
2018-06-18T11:40:49.976Z,33.70
2018-06-18T11:43:19.790Z,34.00
2018-06-18T11:45:49.759Z,33.30
2018-06-18T11:48:20.972Z,33.80
2018-06-18T11:50:51.032Z,33.90
2018-06-18T11:53:21.266Z,33.50
2018-06-18T11:55:51.101Z,33.80
2018-06-18T11:58:26.061Z,33.80
2018-06-18T12:01:00.749Z,34.30
2018-06-18T12:03:35.597Z,33.40
2018-06-18T12:06:10.528Z,34.50
2018-06-18T12:08:45.141Z,32.60
2018-06-18T12:11:14.805Z,32.40
2018-06-18T12:13:44.371Z,33.40
2018-06-18T12:16:14.152Z,33.70
2018-06-18T12:18:43.796Z,33.90
2018-06-18T12:21:13.470Z,32.60
2018-06-18T12:23:43.148Z,33.50
2018-06-18T12:26:12.785Z,34.10
2018-06-18T12:28:42.397Z,33.80
2018-06-18T12:31:12.205Z,34.90
2018-06-18T12:33:41.842Z,34.70
2018-06-18T12:36:11.657Z,34.70
2018-06-18T12:38:41.518Z,33.00
2018-06-18T12:41:11.394Z,34.50
2018-06-18T12:43:42.834Z,34.00
2018-06-18T12:46:17.591Z,33.80
2018-06-18T12:48:52.248Z,33.30
2018-06-18T12:51:27.025Z,33.30
2018-06-18T12:54:01.718Z,33.10
2018-06-18T12:56:37.040Z,32.60
2018-06-18T12:59:06.877Z,33.00
2018-06-18T13:01:38.497Z,32.90
2018-06-18T13:04:09.212Z,33.70
2018-06-18T13:09:09.489Z,33.50
2018-06-18T13:11:39.089Z,32.80
2018-06-18T13:14:08.758Z,33.00
2018-06-18T13:16:38.506Z,32.80
2018-06-18T13:19:08.041Z,33.50
2018-06-18T13:21:37.738Z,33.60
2018-06-18T13:24:07.520Z,33.70
2018-06-18T13:26:37.178Z,33.10
2018-06-18T13:29:07.040Z,33.60
2018-06-18T13:31:36.865Z,32.00
2018-06-18T13:34:06.577Z,31.80
2018-06-18T13:36:36.320Z,31.80
2018-06-18T13:39:13.469Z,31.30
2018-06-18T13:41:48.094Z,31.10
2018-06-18T13:44:22.967Z,31.00
2018-06-18T13:46:57.828Z,32.00
2018-06-18T13:52:01.900Z,32.60
2018-06-18T13:54:31.589Z,30.90
2018-06-18T13:57:01.266Z,31.30
2018-06-18T13:59:31.093Z,32.00
2018-06-18T14:02:00.869Z,31.70
2018-06-18T14:04:30.583Z,33.30
2018-06-18T14:07:00.344Z,34.70
2018-06-18T14:09:30.436Z,36.20
2018-06-18T14:12:00.068Z,37.10
2018-06-18T14:14:29.704Z,37.10
2018-06-18T14:16:59.310Z,38.10
2018-06-18T14:19:34.181Z,38.00
2018-06-18T14:22:03.934Z,38.70
2018-06-18T14:24:33.589Z,39.00
2018-06-18T14:27:03.349Z,39.50
2018-06-18T14:29:38.077Z,40.10
2018-06-18T14:32:12.033Z,39.70
2018-06-18T14:34:46.789Z,40.10
2018-06-18T14:37:21.373Z,38.90
2018-06-18T14:39:55.220Z,39.30
2018-06-18T14:42:25.057Z,38.60
2018-06-18T14:44:54.670Z,38.80
2018-06-18T14:47:24.464Z,38.80
2018-06-18T14:49:54.196Z,39.80
2018-06-18T14:52:23.865Z,39.10
2018-06-18T14:57:22.882Z,40.30
2018-06-18T14:59:57.744Z,40.70
2018-06-18T15:02:27.441Z,41.10
2018-06-18T15:07:26.348Z,42.00
2018-06-18T15:09:55.977Z,41.30
2018-06-18T15:12:26.892Z,40.90
2018-06-18T15:15:01.771Z,41.40
2018-06-18T15:17:31.486Z,40.90
2018-06-18T15:20:01.170Z,41.00
2018-06-18T15:22:32.112Z,41.30
2018-06-18T15:25:05.147Z,41.60
2018-06-18T15:27:34.813Z,42.40
2018-06-18T15:30:04.644Z,41.70
2018-06-18T15:32:34.428Z,41.70
2018-06-18T15:35:04.117Z,41.90
2018-06-18T15:37:33.777Z,41.20
2018-06-18T15:40:03.578Z,41.50
2018-06-18T15:42:33.296Z,41.00
2018-06-18T15:45:03.109Z,41.20
2018-06-18T15:47:32.968Z,41.20
2018-06-18T15:50:02.612Z,41.00
2018-06-18T15:52:32.214Z,40.90
2018-06-18T15:55:01.789Z,40.80
2018-06-18T15:57:31.442Z,41.30
2018-06-18T16:00:01.230Z,41.20
2018-06-18T16:02:30.921Z,43.20
2018-06-18T16:05:00.566Z,44.40
2018-06-18T16:07:30.341Z,43.30
2018-06-18T16:09:59.993Z,43.10
2018-06-18T16:12:29.745Z,42.90
2018-06-18T16:14:59.190Z,42.30
2018-06-18T16:17:28.812Z,41.30
2018-06-18T16:19:58.600Z,41.30
2018-06-18T16:22:28.298Z,41.20
2018-06-18T16:24:57.884Z,40.60
2018-06-18T16:27:27.434Z,41.70
2018-06-18T16:29:57.125Z,41.90
2018-06-18T16:32:26.872Z,42.10
2018-06-18T16:34:56.413Z,42.70
2018-06-18T16:37:26.143Z,42.60
2018-06-18T16:39:55.905Z,42.50
2018-06-18T16:42:25.596Z,41.90
2018-06-18T16:44:55.269Z,42.10
2018-06-18T16:47:25.005Z,42.80
2018-06-18T16:49:54.685Z,42.70
2018-06-18T16:54:53.249Z,42.50
2018-06-18T16:57:23.036Z,42.10
2018-06-18T16:59:52.765Z,42.40
2018-06-18T17:02:22.153Z,43.00
2018-06-18T17:04:51.504Z,43.20
2018-06-18T17:07:20.897Z,43.30
2018-06-18T17:09:50.262Z,43.50
2018-06-18T17:12:19.625Z,43.50
2018-06-18T17:14:49.036Z,43.80
2018-06-18T17:17:18.460Z,44.20
2018-06-18T17:19:47.820Z,44.80
2018-06-18T17:22:17.192Z,43.80
2018-06-18T17:24:46.569Z,44.00
2018-06-18T17:27:15.941Z,44.10
2018-06-18T17:29:45.309Z,44.30
2018-06-18T17:32:14.673Z,45.20
2018-06-18T17:34:44.031Z,45.00
2018-06-18T17:37:13.401Z,45.50
2018-06-18T17:39:42.766Z,45.40
2018-06-18T17:42:12.137Z,46.20
2018-06-18T17:44:41.512Z,46.10
2018-06-18T17:47:10.941Z,45.90
2018-06-18T17:49:40.318Z,46.60
2018-06-18T17:52:10.272Z,47.00
2018-06-18T17:54:40.322Z,46.90
2018-06-18T17:57:10.665Z,46.90
2018-06-18T17:59:40.883Z,47.70
2018-06-18T18:02:11.200Z,47.40
2018-06-18T18:04:41.649Z,48.10
2018-06-18T18:07:11.943Z,47.90
2018-06-18T18:09:42.279Z,47.70
2018-06-18T18:14:42.067Z,48.00
2018-06-18T18:17:12.364Z,49.10
2018-06-18T18:19:44.099Z,48.70
2018-06-18T18:22:16.617Z,48.70
2018-06-18T18:24:45.977Z,48.90
2018-06-18T18:27:16.028Z,48.90
2018-06-18T18:32:16.207Z,49.30
2018-06-18T18:34:45.974Z,49.20
2018-06-18T18:37:16.562Z,50.40
2018-06-18T18:39:46.724Z,50.00
2018-06-18T18:42:17.179Z,49.90
2018-06-18T18:44:46.592Z,50.40
2018-06-18T18:47:16.996Z,50.20
2018-06-18T18:49:47.146Z,50.40
2018-06-18T18:52:17.107Z,50.30
2018-06-18T18:56:00.224Z,50.60
2018-06-18T18:59:23.170Z,50.50
2018-06-18T19:01:53.256Z,51.20
2018-06-18T19:04:25.870Z,51.10
2018-06-18T19:06:55.335Z,51.10
2018-06-18T19:09:27.204Z,50.90
2018-06-18T19:11:56.640Z,51.00
2018-06-18T19:14:25.964Z,51.80
2018-06-18T19:16:55.349Z,51.60
2018-06-18T19:19:26.833Z,51.60
2018-06-18T19:21:56.228Z,51.60
2018-06-18T19:24:25.585Z,51.70
2018-06-18T19:26:54.994Z,51.20
2018-06-18T19:29:24.704Z,51.80
2018-06-18T19:31:54.426Z,51.80
2018-06-18T19:34:26.424Z,52.00
2018-06-18T19:36:56.988Z,52.50
2018-06-18T19:39:36.488Z,52.40
2018-06-18T19:42:05.961Z,53.10
2018-06-18T19:44:35.347Z,53.20
2018-06-18T19:47:16.766Z,52.40
2018-06-18T19:49:46.207Z,52.00
2018-06-18T19:52:15.581Z,52.50
2018-06-18T19:54:48.380Z,52.30
2018-06-18T19:57:17.778Z,53.60
2018-06-18T19:59:47.345Z,53.20
2018-06-18T20:02:16.974Z,52.70
2018-06-18T20:04:46.401Z,52.40
2018-06-18T20:07:16.048Z,52.70
2018-06-18T20:09:45.442Z,52.80
2018-06-18T20:12:14.833Z,52.30
2018-06-18T20:14:44.219Z,53.00
2018-06-18T20:17:13.604Z,52.60
2018-06-18T20:19:43.034Z,52.90
2018-06-18T20:22:12.416Z,52.50
2018-06-18T20:24:42.872Z,52.30
2018-06-18T20:27:12.472Z,53.40
2018-06-18T20:29:42.161Z,52.30
2018-06-18T20:32:12.001Z,52.20
2018-06-18T20:34:42.136Z,52.80
2018-06-18T20:37:11.549Z,52.90
2018-06-18T20:39:42.321Z,53.20
2018-06-18T20:42:11.686Z,53.10
2018-06-18T20:44:41.064Z,52.70
2018-06-18T20:47:10.461Z,52.50
2018-06-18T20:49:39.825Z,52.40
2018-06-18T20:52:09.711Z,52.30
2018-06-18T20:54:39.091Z,52.80
2018-06-18T20:57:08.942Z,51.90
2018-06-18T20:59:38.744Z,52.60
2018-06-18T21:02:08.175Z,52.00
2018-06-18T21:04:37.568Z,52.20
2018-06-18T21:07:06.941Z,53.20
2018-06-18T21:09:36.317Z,52.10
2018-06-18T21:12:05.734Z,53.20
2018-06-18T21:14:35.190Z,53.30
2018-06-18T21:17:04.613Z,51.50
2018-06-18T21:19:33.969Z,53.10
2018-06-18T21:22:03.488Z,51.80
2018-06-18T21:24:32.864Z,52.40
2018-06-18T21:27:02.236Z,52.30
2018-06-18T21:29:31.610Z,52.90
2018-06-18T21:32:00.993Z,52.50
2018-06-18T21:34:30.397Z,52.10
2018-06-18T21:36:59.781Z,52.50
2018-06-18T21:39:29.210Z,53.70
2018-06-18T21:41:58.637Z,53.60
2018-06-18T21:44:39.757Z,52.80
2018-06-18T21:47:09.142Z,53.30
2018-06-18T21:49:38.588Z,52.90
2018-06-18T21:52:07.968Z,53.20
2018-06-18T21:54:37.768Z,54.00
2018-06-18T21:57:07.137Z,53.50
2018-06-18T21:59:36.521Z,53.50
2018-06-18T22:02:05.925Z,53.10
2018-06-18T22:04:35.297Z,51.90
2018-06-18T22:07:04.679Z,52.20
2018-06-18T22:09:34.056Z,54.10
2018-06-18T22:12:03.571Z,53.40
2018-06-18T22:14:32.997Z,53.40
2018-06-18T22:17:02.361Z,54.20
2018-06-18T22:19:31.757Z,53.20
2018-06-18T22:22:01.144Z,53.30
2018-06-18T22:24:30.536Z,53.60
2018-06-18T22:26:59.950Z,53.00
2018-06-18T22:29:29.393Z,52.90
2018-06-18T22:31:58.820Z,53.30
2018-06-18T22:34:28.819Z,53.20
2018-06-18T22:36:58.626Z,53.00
2018-06-18T22:39:28.211Z,53.20
2018-06-18T22:41:58.056Z,52.90
2018-06-18T22:44:28.051Z,52.40
2018-06-18T22:46:57.897Z,52.80
2018-06-18T22:49:27.763Z,53.80
2018-06-18T22:51:57.553Z,53.90
2018-06-18T22:54:27.372Z,53.80
2018-06-18T22:56:57.629Z,54.00
2018-06-18T22:59:27.353Z,53.60
2018-06-18T23:01:59.132Z,53.40
2018-06-18T23:04:28.985Z,53.60
2018-06-18T23:06:58.624Z,54.30
2018-06-18T23:09:28.341Z,54.00
2018-06-18T23:11:58.145Z,53.30
2018-06-18T23:14:27.964Z,53.10
2018-06-18T23:16:57.891Z,55.20
2018-06-18T23:19:27.796Z,54.60
2018-06-18T23:21:57.619Z,54.40
2018-06-18T23:24:27.531Z,54.30
2018-06-18T23:26:57.468Z,55.40
2018-06-18T23:29:27.353Z,55.20
2018-06-18T23:31:58.100Z,54.60
2018-06-18T23:34:27.886Z,54.80
2018-06-18T23:36:57.565Z,54.50
2018-06-18T23:41:57.959Z,55.00
2018-06-18T23:44:27.822Z,55.40
2018-06-18T23:46:57.578Z,55.00
2018-06-18T23:49:27.337Z,54.60
2018-06-18T23:51:56.994Z,55.10
2018-06-18T23:54:26.789Z,55.70
2018-06-18T23:56:56.508Z,55.50
2018-06-18T23:59:26.203Z,55.50
